createdAt,value
2019-01-24T00:01:13.399Z,32.87
2019-01-24T00:03:17.085Z,32.40
2019-01-24T00:05:20.997Z,35.17
2019-01-24T00:07:24.674Z,33.80
2019-01-24T00:09:28.368Z,31.10
2019-01-24T00:11:32.034Z,32.07
2019-01-24T00:13:35.727Z,33.27
2019-01-24T00:15:39.383Z,32.83
2019-01-24T00:17:43.042Z,33.57
2019-01-24T00:19:46.942Z,33.50
2019-01-24T00:21:50.605Z,32.33
2019-01-24T00:23:54.307Z,32.00
2019-01-24T00:25:57.971Z,34.33
2019-01-24T00:28:01.638Z,32.30
2019-01-24T00:30:13.133Z,32.67
2019-01-24T00:32:16.789Z,32.77
2019-01-24T00:34:23.323Z,33.10
2019-01-24T00:36:25.957Z,31.77
2019-01-24T00:38:29.628Z,35.07
2019-01-24T00:40:33.288Z,34.57
2019-01-24T00:42:36.956Z,33.50
2019-01-24T00:44:40.659Z,32.17
2019-01-24T00:46:44.318Z,34.47
2019-01-24T00:48:47.978Z,33.03
2019-01-24T00:50:51.665Z,32.17
2019-01-24T00:52:55.346Z,34.13
2019-01-24T00:54:59.034Z,33.20
2019-01-24T00:57:02.747Z,33.10
2019-01-24T00:59:06.414Z,33.10
2019-01-24T01:01:10.212Z,32.70
2019-01-24T01:03:13.875Z,32.33
2019-01-24T01:05:17.569Z,34.67
2019-01-24T01:07:21.226Z,34.80
2019-01-24T01:09:24.898Z,33.33
2019-01-24T01:11:28.611Z,33.57
2019-01-24T01:13:32.365Z,33.20
2019-01-24T01:15:36.175Z,34.30
2019-01-24T01:17:39.812Z,34.07
2019-01-24T01:19:43.473Z,33.93
2019-01-24T01:21:47.152Z,34.50
2019-01-24T01:23:50.820Z,33.53
2019-01-24T01:25:54.500Z,32.90
2019-01-24T01:27:58.165Z,33.23
2019-01-24T01:30:01.835Z,32.83
2019-01-24T01:32:05.617Z,33.63
2019-01-24T01:34:09.279Z,33.23
2019-01-24T01:36:12.971Z,33.60
2019-01-24T01:38:17.466Z,35.37
2019-01-24T01:40:21.277Z,33.90
2019-01-24T01:42:25.010Z,32.67
2019-01-24T01:44:28.710Z,34.47
2019-01-24T01:46:32.407Z,34.03
2019-01-24T01:48:36.074Z,32.73
2019-01-24T01:50:39.731Z,32.63
2019-01-24T01:52:43.431Z,34.47
2019-01-24T01:54:47.073Z,33.27
2019-01-24T01:56:50.770Z,33.43
2019-01-24T01:58:54.426Z,34.70
2019-01-24T02:00:58.089Z,33.07
2019-01-24T02:03:01.778Z,34.57
2019-01-24T02:05:08.134Z,33.70
2019-01-24T02:07:11.827Z,32.67
2019-01-24T02:09:15.520Z,32.70
2019-01-24T02:11:19.278Z,34.23
2019-01-24T02:13:22.979Z,32.37
2019-01-24T02:15:26.640Z,35.13
2019-01-24T02:17:30.341Z,34.13
2019-01-24T02:19:34.013Z,33.33
2019-01-24T02:21:37.767Z,34.13
2019-01-24T02:23:41.479Z,32.47
2019-01-24T02:25:45.135Z,31.87
2019-01-24T02:27:48.874Z,34.10
2019-01-24T02:29:52.540Z,31.97
2019-01-24T02:31:56.203Z,33.40
2019-01-24T02:33:59.874Z,32.73
2019-01-24T02:36:03.546Z,34.57
2019-01-24T02:38:07.263Z,35.93
2019-01-24T02:40:11.425Z,33.33
2019-01-24T02:42:15.095Z,32.03
2019-01-24T02:44:18.793Z,31.90
2019-01-24T02:46:22.454Z,34.47
2019-01-24T02:48:26.152Z,31.83
2019-01-24T02:50:29.823Z,34.20
2019-01-24T02:52:33.492Z,32.40
2019-01-24T02:54:37.178Z,31.13
2019-01-24T02:56:40.839Z,31.53
2019-01-24T02:58:44.503Z,30.87
2019-01-24T03:00:48.274Z,31.37
2019-01-24T03:02:52.031Z,31.67
2019-01-24T03:04:57.103Z,32.27
2019-01-24T03:07:00.857Z,30.90
2019-01-24T03:09:06.431Z,30.90
2019-01-24T03:11:10.123Z,30.13
2019-01-24T03:13:13.775Z,33.80
2019-01-24T03:15:19.220Z,30.77
2019-01-24T03:17:22.889Z,31.60
2019-01-24T03:19:26.548Z,33.57
2019-01-24T03:21:30.247Z,32.90
2019-01-24T03:23:33.894Z,33.97
2019-01-24T03:25:37.596Z,33.37
2019-01-24T03:27:41.258Z,32.40
2019-01-24T03:29:44.937Z,32.80
2019-01-24T03:31:48.619Z,35.77
2019-01-24T03:33:52.355Z,33.77
2019-01-24T03:35:56.039Z,34.87
2019-01-24T03:37:59.703Z,33.07
2019-01-24T03:40:03.473Z,32.63
2019-01-24T03:42:07.171Z,33.97
2019-01-24T03:44:10.840Z,34.10
2019-01-24T03:46:14.524Z,33.33
2019-01-24T03:48:18.191Z,35.50
2019-01-24T03:50:22.651Z,36.13
2019-01-24T03:52:26.324Z,33.83
2019-01-24T03:54:29.986Z,34.53
2019-01-24T03:56:33.709Z,34.17
2019-01-24T03:58:37.366Z,33.07
2019-01-24T04:00:41.034Z,34.73
2019-01-24T04:02:44.742Z,33.50
2019-01-24T04:04:48.493Z,35.70
2019-01-24T04:06:52.456Z,36.23
2019-01-24T04:08:56.135Z,32.73
2019-01-24T04:10:59.922Z,34.97
2019-01-24T04:13:03.603Z,38.80
2019-01-24T04:15:10.463Z,33.47
2019-01-24T04:17:14.126Z,33.47
2019-01-24T04:19:17.825Z,36.03
2019-01-24T04:21:21.483Z,33.97
2019-01-24T04:23:25.186Z,32.50
2019-01-24T04:25:28.923Z,36.27
2019-01-24T04:27:32.611Z,33.97
2019-01-24T04:29:36.357Z,33.57
2019-01-24T04:31:40.022Z,35.00
2019-01-24T04:33:43.725Z,34.73
2019-01-24T04:35:47.397Z,34.03
2019-01-24T04:37:51.098Z,34.60
2019-01-24T04:39:54.885Z,35.97
2019-01-24T04:41:58.542Z,38.33
2019-01-24T04:44:02.259Z,37.83
2019-01-24T04:46:05.915Z,37.53
2019-01-24T04:48:09.589Z,36.83
2019-01-24T04:50:15.295Z,37.73
2019-01-24T04:52:18.972Z,36.73
2019-01-24T04:54:22.671Z,36.43
2019-01-24T04:56:26.322Z,45.57
2019-01-24T04:58:30.076Z,38.53
2019-01-24T05:00:33.772Z,42.53
2019-01-24T05:02:37.442Z,37.50
2019-01-24T05:04:41.163Z,36.73
2019-01-24T05:06:44.827Z,36.63
2019-01-24T05:08:48.502Z,35.07
2019-01-24T05:10:52.185Z,36.67
2019-01-24T05:12:55.850Z,42.63
2019-01-24T05:14:59.537Z,43.20
2019-01-24T05:17:03.199Z,37.57
2019-01-24T05:19:06.951Z,36.90
2019-01-24T05:21:10.645Z,35.93
2019-01-24T05:23:14.295Z,36.53
2019-01-24T05:25:18.103Z,37.00
2019-01-24T05:27:21.768Z,36.80
2019-01-24T05:29:25.425Z,37.17
2019-01-24T05:31:29.121Z,37.23
2019-01-24T05:33:32.782Z,35.97
2019-01-24T05:35:36.521Z,37.13
2019-01-24T05:37:40.295Z,37.93
2019-01-24T05:39:43.949Z,36.27
2019-01-24T05:41:47.636Z,41.57
2019-01-24T05:43:51.332Z,43.23
2019-01-24T05:45:55.017Z,40.57
2019-01-24T05:47:58.688Z,39.17
2019-01-24T05:50:02.380Z,43.10
2019-01-24T05:52:06.042Z,40.47
2019-01-24T05:54:09.715Z,41.83
2019-01-24T05:56:13.415Z,39.73
2019-01-24T05:58:17.067Z,38.47
2019-01-24T06:00:22.808Z,38.13
2019-01-24T06:02:26.746Z,37.50
2019-01-24T06:04:30.411Z,39.83
2019-01-24T06:06:34.205Z,40.07
2019-01-24T06:08:37.914Z,38.53
2019-01-24T06:10:41.596Z,38.37
2019-01-24T06:12:45.381Z,39.17
2019-01-24T06:14:49.037Z,38.03
2019-01-24T06:16:52.715Z,39.57
2019-01-24T06:18:56.398Z,39.70
2019-01-24T06:21:00.074Z,41.53
2019-01-24T06:23:03.759Z,39.83
2019-01-24T06:25:09.992Z,40.77
2019-01-24T06:27:13.672Z,39.27
2019-01-24T06:29:17.354Z,41.00
2019-01-24T06:31:21.025Z,42.63
2019-01-24T06:33:24.818Z,41.37
2019-01-24T06:35:28.476Z,42.60
2019-01-24T06:37:32.142Z,39.40
2019-01-24T06:39:35.950Z,39.30
2019-01-24T06:41:39.628Z,37.57
2019-01-24T06:43:43.364Z,39.17
2019-01-24T06:45:47.019Z,38.97
2019-01-24T06:47:50.674Z,38.53
2019-01-24T06:49:54.370Z,37.20
2019-01-24T06:51:58.030Z,38.47
2019-01-24T06:54:01.715Z,37.47
2019-01-24T06:56:05.383Z,36.37
2019-01-24T06:58:09.113Z,37.43
2019-01-24T07:00:15.770Z,37.90
2019-01-24T07:02:19.477Z,37.03
2019-01-24T07:04:23.258Z,40.40
2019-01-24T07:06:26.914Z,39.03
2019-01-24T07:08:30.578Z,37.20
2019-01-24T07:10:34.265Z,37.27
2019-01-24T07:12:37.928Z,37.40
2019-01-24T07:14:41.830Z,35.83
2019-01-24T07:16:45.497Z,37.83
2019-01-24T07:18:49.166Z,36.73
2019-01-24T07:20:52.843Z,37.50
2019-01-24T07:22:56.502Z,39.60
2019-01-24T07:25:00.208Z,38.77
2019-01-24T07:27:03.854Z,39.27
2019-01-24T07:29:07.508Z,39.53
2019-01-24T07:31:11.199Z,38.70
2019-01-24T07:33:14.868Z,40.67
2019-01-24T07:35:19.947Z,39.80
2019-01-24T07:37:23.624Z,37.37
2019-01-24T07:39:27.286Z,38.23
2019-01-24T07:41:31.057Z,38.13
2019-01-24T07:43:34.710Z,41.23
2019-01-24T07:45:40.003Z,38.97
2019-01-24T07:47:43.681Z,36.87
2019-01-24T07:49:47.339Z,39.50
2019-01-24T07:51:51.028Z,39.87
2019-01-24T07:53:54.694Z,38.07
2019-01-24T07:55:58.406Z,38.97
2019-01-24T07:58:02.072Z,40.80
2019-01-24T08:00:20.024Z,39.43
2019-01-24T08:02:23.707Z,39.97
2019-01-24T08:04:27.364Z,39.83
2019-01-24T08:06:31.053Z,39.60
2019-01-24T08:08:34.723Z,39.30
2019-01-24T08:10:38.391Z,41.23
2019-01-24T08:12:42.090Z,40.77
2019-01-24T08:14:45.740Z,40.77
2019-01-24T08:16:49.441Z,39.37
2019-01-24T08:18:53.219Z,39.20
2019-01-24T08:20:56.874Z,41.40
2019-01-24T08:23:00.569Z,41.13
2019-01-24T08:25:05.623Z,40.97
2019-01-24T08:27:09.312Z,39.20
2019-01-24T08:29:12.958Z,39.97
2019-01-24T08:31:16.623Z,40.13
2019-01-24T08:33:20.338Z,52.83
2019-01-24T08:35:24.208Z,42.97
2019-01-24T08:37:28.042Z,41.57
2019-01-24T08:39:31.755Z,40.77
2019-01-24T08:41:35.425Z,38.67
2019-01-24T08:43:39.123Z,40.17
2019-01-24T08:45:42.803Z,39.07
2019-01-24T08:47:46.454Z,40.30
2019-01-24T08:49:50.141Z,41.70
2019-01-24T08:51:53.810Z,41.90
2019-01-24T08:53:57.495Z,40.80
2019-01-24T08:56:01.163Z,42.50
2019-01-24T08:58:05.448Z,43.30
2019-01-24T09:00:20.503Z,42.20
2019-01-24T09:02:24.176Z,41.83
2019-01-24T09:04:27.862Z,40.87
2019-01-24T09:06:31.525Z,41.83
2019-01-24T09:08:35.199Z,43.70
2019-01-24T09:10:39.084Z,42.43
2019-01-24T09:12:42.738Z,44.00
2019-01-24T09:14:46.440Z,44.40
2019-01-24T09:16:50.103Z,44.00
2019-01-24T09:18:53.790Z,41.77
2019-01-24T09:20:57.467Z,42.40
2019-01-24T09:23:01.130Z,47.43
2019-01-24T09:25:07.031Z,53.63
2019-01-24T09:27:11.842Z,45.47
2019-01-24T09:29:15.548Z,43.43
2019-01-24T09:31:19.212Z,42.43
2019-01-24T09:33:22.881Z,42.07
2019-01-24T09:35:26.570Z,39.60
2019-01-24T09:37:30.298Z,47.77
2019-01-24T09:39:34.002Z,47.30
2019-01-24T09:41:37.678Z,43.63
2019-01-24T09:43:41.350Z,43.23
2019-01-24T09:45:45.047Z,44.03
2019-01-24T09:47:48.809Z,44.67
2019-01-24T09:49:52.492Z,45.90
2019-01-24T09:51:56.167Z,44.40
2019-01-24T09:53:59.824Z,44.27
2019-01-24T09:56:03.508Z,47.23
2019-01-24T09:58:07.193Z,45.30
2019-01-24T10:00:13.939Z,43.63
2019-01-24T10:02:17.622Z,42.20
2019-01-24T10:04:21.312Z,42.83
2019-01-24T10:06:25.091Z,41.43
2019-01-24T10:08:28.825Z,42.33
2019-01-24T10:10:32.527Z,40.93
2019-01-24T10:12:36.221Z,40.77
2019-01-24T10:14:39.892Z,42.53
2019-01-24T10:16:43.589Z,41.17
2019-01-24T10:18:47.266Z,46.93
2019-01-24T10:20:50.942Z,44.60
2019-01-24T10:22:54.828Z,40.00
2019-01-24T10:24:58.575Z,40.87
2019-01-24T10:27:02.271Z,41.23
2019-01-24T10:29:05.952Z,39.40
2019-01-24T10:31:09.633Z,41.80
2019-01-24T10:33:13.331Z,39.07
2019-01-24T10:35:17.394Z,39.23
2019-01-24T10:37:21.081Z,40.30
2019-01-24T10:39:24.753Z,37.80
2019-01-24T10:41:28.422Z,40.57
2019-01-24T10:43:32.115Z,41.47
2019-01-24T10:45:35.786Z,40.63
2019-01-24T10:47:39.456Z,36.80
2019-01-24T10:49:43.178Z,36.47
2019-01-24T10:51:46.838Z,76.83
2019-01-24T10:53:50.529Z,37.50
2019-01-24T10:55:54.183Z,41.27
2019-01-24T10:57:59.473Z,37.30
2019-01-24T11:00:03.376Z,35.80
2019-01-24T11:02:07.330Z,37.70
2019-01-24T11:04:11.167Z,35.97
2019-01-24T11:06:14.824Z,36.07
2019-01-24T11:08:18.554Z,36.40
2019-01-24T11:10:22.515Z,35.67
2019-01-24T11:12:26.175Z,36.47
2019-01-24T11:14:30.047Z,37.90
2019-01-24T11:16:33.702Z,36.10
2019-01-24T11:18:37.378Z,36.50
2019-01-24T11:20:41.040Z,36.03
2019-01-24T11:22:44.706Z,36.23
2019-01-24T11:24:48.396Z,37.23
2019-01-24T11:26:52.063Z,35.90
2019-01-24T11:28:55.978Z,37.70
2019-01-24T11:30:59.647Z,35.80
2019-01-24T11:33:03.326Z,36.13
2019-01-24T11:35:10.026Z,35.20
2019-01-24T11:37:13.717Z,33.23
2019-01-24T11:39:17.419Z,32.47
2019-01-24T11:41:21.199Z,31.47
2019-01-24T11:43:24.857Z,32.57
2019-01-24T11:45:33.943Z,33.33
2019-01-24T11:47:37.614Z,33.73
2019-01-24T11:49:41.301Z,34.90
2019-01-24T11:51:44.973Z,34.30
2019-01-24T11:53:53.073Z,34.13
2019-01-24T11:55:54.031Z,32.73
2019-01-24T11:57:57.738Z,32.17
2019-01-24T12:00:01.436Z,31.67
2019-01-24T12:02:05.362Z,32.93
2019-01-24T12:04:09.059Z,32.63
2019-01-24T12:06:12.743Z,32.30
2019-01-24T12:08:16.435Z,33.07
2019-01-24T12:10:22.863Z,33.73
2019-01-24T12:12:26.657Z,34.93
2019-01-24T12:14:30.327Z,34.00
2019-01-24T12:16:33.994Z,36.00
2019-01-24T12:18:37.667Z,35.93
2019-01-24T12:20:41.344Z,34.83
2019-01-24T12:22:45.003Z,34.77
2019-01-24T12:24:48.658Z,39.53
2019-01-24T12:26:52.338Z,35.77
2019-01-24T12:28:55.998Z,34.10
2019-01-24T12:30:59.701Z,35.17
2019-01-24T12:33:03.953Z,35.87
2019-01-24T12:35:09.312Z,36.03
2019-01-24T12:37:13.006Z,33.43
2019-01-24T12:39:16.667Z,34.47
2019-01-24T12:41:20.376Z,34.70
2019-01-24T12:43:24.039Z,33.73
2019-01-24T12:45:33.110Z,34.17
2019-01-24T12:47:36.899Z,33.13
2019-01-24T12:49:40.560Z,34.87
2019-01-24T12:51:44.264Z,35.03
2019-01-24T12:53:47.920Z,35.27
2019-01-24T12:55:51.578Z,35.87
2019-01-24T12:57:55.267Z,37.00
2019-01-24T12:59:59.816Z,35.17
2019-01-24T13:02:03.975Z,33.47
2019-01-24T13:04:07.672Z,36.73
2019-01-24T13:06:11.332Z,35.17
2019-01-24T13:08:15.191Z,34.30
2019-01-24T13:10:21.221Z,36.27
2019-01-24T13:12:24.878Z,35.23
2019-01-24T13:14:28.656Z,35.23
2019-01-24T13:16:32.319Z,36.13
2019-01-24T13:18:36.034Z,33.47
2019-01-24T13:20:39.686Z,34.70
2019-01-24T13:22:44.054Z,34.30
2019-01-24T13:24:47.742Z,33.93
2019-01-24T13:26:51.407Z,35.27
2019-01-24T13:28:55.088Z,37.30
2019-01-24T13:30:58.762Z,35.97
2019-01-24T13:33:02.843Z,37.67
2019-01-24T13:35:06.506Z,36.97
2019-01-24T13:37:10.165Z,36.87
2019-01-24T13:39:14.200Z,36.70
2019-01-24T13:41:17.855Z,38.00
2019-01-24T13:43:21.521Z,34.60
2019-01-24T13:45:30.107Z,40.20
2019-01-24T13:47:33.806Z,43.27
2019-01-24T13:49:37.518Z,39.83
2019-01-24T13:51:42.211Z,36.70
2019-01-24T13:53:45.870Z,35.20
2019-01-24T13:55:49.551Z,34.70
2019-01-24T13:57:53.230Z,37.03
2019-01-24T13:59:56.910Z,34.53
2019-01-24T14:02:00.599Z,33.90
2019-01-24T14:04:07.336Z,36.60
2019-01-24T14:06:11.006Z,35.17
2019-01-24T14:08:14.681Z,32.83
2019-01-24T14:10:18.761Z,32.97
2019-01-24T14:12:22.439Z,33.20
2019-01-24T14:14:26.099Z,31.90
2019-01-24T14:16:29.787Z,33.00
2019-01-24T14:18:33.642Z,33.20
2019-01-24T14:20:37.340Z,32.73
2019-01-24T14:22:41.186Z,32.23
2019-01-24T14:24:44.838Z,32.10
2019-01-24T14:26:48.554Z,32.27
2019-01-24T14:28:52.221Z,31.23
2019-01-24T14:30:55.896Z,33.00
2019-01-24T14:32:59.636Z,32.27
2019-01-24T14:35:03.693Z,33.03
2019-01-24T14:37:07.495Z,32.57
2019-01-24T14:39:11.275Z,30.97
2019-01-24T14:41:14.968Z,31.63
2019-01-24T14:43:18.621Z,32.33
2019-01-24T14:45:27.362Z,32.17
2019-01-24T14:47:31.149Z,33.40
2019-01-24T14:49:34.820Z,34.23
2019-01-24T14:51:38.541Z,39.17
2019-01-24T14:53:42.201Z,32.33
2019-01-24T14:55:45.870Z,34.87
2019-01-24T14:57:49.854Z,35.20
2019-01-24T14:59:53.518Z,37.13
2019-01-24T15:01:57.208Z,33.00
2019-01-24T15:04:00.880Z,35.60
2019-01-24T15:06:05.150Z,36.40
2019-01-24T15:08:08.838Z,34.13
2019-01-24T15:10:15.021Z,42.13
2019-01-24T15:12:18.720Z,34.83
2019-01-24T15:14:22.515Z,39.13
2019-01-24T15:16:26.192Z,44.10
2019-01-24T15:18:29.897Z,70.37
2019-01-24T15:20:33.583Z,52.93
2019-01-24T15:22:37.242Z,39.43
2019-01-24T15:24:40.934Z,36.40
2019-01-24T15:26:44.607Z,32.20
2019-01-24T15:28:48.467Z,33.67
2019-01-24T15:30:52.123Z,35.10
2019-01-24T15:32:55.805Z,33.53
2019-01-24T15:34:59.491Z,39.40
2019-01-24T15:37:03.170Z,34.20
2019-01-24T15:39:07.266Z,31.13
2019-01-24T15:41:10.922Z,32.47
2019-01-24T15:43:14.585Z,29.33
2019-01-24T15:45:18.837Z,32.87
2019-01-24T15:47:22.537Z,29.17
2019-01-24T15:49:26.230Z,30.47
2019-01-24T15:51:29.950Z,30.27
2019-01-24T15:53:33.644Z,35.57
2019-01-24T15:55:37.313Z,30.23
2019-01-24T15:57:40.976Z,30.47
2019-01-24T15:59:44.673Z,28.37
2019-01-24T16:01:49.727Z,31.97
2019-01-24T16:03:53.403Z,30.90
2019-01-24T16:05:57.097Z,30.23
2019-01-24T16:08:01.874Z,30.33
2019-01-24T16:10:08.904Z,29.73
2019-01-24T16:12:12.575Z,28.90
2019-01-24T16:14:16.263Z,32.43
2019-01-24T16:16:19.919Z,33.30
2019-01-24T16:18:23.578Z,35.33
2019-01-24T16:20:28.871Z,42.30
2019-01-24T16:22:32.552Z,32.60
2019-01-24T16:24:36.203Z,46.03
2019-01-24T16:26:39.899Z,33.53
2019-01-24T16:28:43.575Z,30.80
2019-01-24T16:30:47.262Z,30.37
2019-01-24T16:32:50.931Z,37.63
2019-01-24T16:34:54.614Z,41.27
2019-01-24T16:36:58.302Z,33.97
2019-01-24T16:39:01.983Z,30.00
2019-01-24T16:41:05.665Z,31.10
2019-01-24T16:43:09.392Z,40.27
2019-01-24T16:45:21.208Z,39.90
2019-01-24T16:47:24.902Z,38.00
2019-01-24T16:49:28.652Z,36.63
2019-01-24T16:51:32.310Z,42.70
2019-01-24T16:53:36.009Z,32.03
2019-01-24T16:55:39.669Z,33.50
2019-01-24T16:57:43.367Z,43.50
2019-01-24T16:59:47.038Z,38.50
2019-01-24T17:01:50.737Z,37.07
2019-01-24T17:03:54.400Z,34.47
2019-01-24T17:05:58.063Z,35.63
2019-01-24T17:08:01.764Z,34.73
2019-01-24T17:10:11.402Z,33.33
2019-01-24T17:12:15.229Z,33.30
2019-01-24T17:14:22.392Z,35.33
2019-01-24T17:16:24.338Z,35.80
2019-01-24T17:18:28.002Z,33.07
2019-01-24T17:20:32.062Z,39.53
2019-01-24T17:22:35.763Z,38.90
2019-01-24T17:24:39.689Z,32.60
2019-01-24T17:26:43.352Z,36.93
2019-01-24T17:28:47.059Z,38.57
2019-01-24T17:30:50.739Z,45.10
2019-01-24T17:32:54.433Z,37.73
2019-01-24T17:34:58.123Z,34.00
2019-01-24T17:37:01.794Z,34.67
2019-01-24T17:39:08.215Z,33.07
2019-01-24T17:41:11.946Z,34.47
2019-01-24T17:43:15.639Z,38.80
2019-01-24T17:45:19.361Z,37.47
2019-01-24T17:47:23.019Z,41.70
2019-01-24T17:49:26.706Z,39.50
2019-01-24T17:51:30.370Z,42.07
2019-01-24T17:53:34.163Z,40.80
2019-01-24T17:55:40.548Z,35.60
2019-01-24T17:57:44.175Z,37.47
2019-01-24T17:59:47.854Z,35.47
2019-01-24T18:01:51.510Z,37.23
2019-01-24T18:03:55.193Z,38.10
2019-01-24T18:05:58.848Z,33.87
2019-01-24T18:08:02.501Z,33.87
2019-01-24T18:10:14.215Z,35.30
2019-01-24T18:12:17.510Z,33.60
2019-01-24T18:14:21.264Z,32.67
2019-01-24T18:16:24.925Z,35.27
2019-01-24T18:18:28.578Z,33.17
2019-01-24T18:20:36.733Z,33.93
2019-01-24T18:22:40.489Z,33.13
2019-01-24T18:24:44.156Z,33.07
2019-01-24T18:26:47.848Z,33.43
2019-01-24T18:28:51.632Z,32.97
2019-01-24T18:30:55.315Z,33.20
2019-01-24T18:32:58.993Z,32.43
2019-01-24T18:35:02.708Z,32.63
2019-01-24T18:37:06.537Z,33.00
2019-01-24T18:39:10.541Z,30.50
2019-01-24T18:41:14.254Z,32.63
2019-01-24T18:43:18.785Z,30.37
2019-01-24T18:45:28.796Z,30.20
2019-01-24T18:47:32.499Z,33.53
2019-01-24T18:49:36.151Z,32.27
2019-01-24T18:51:39.848Z,33.50
2019-01-24T18:53:43.514Z,32.23
2019-01-24T18:55:47.338Z,32.30
2019-01-24T18:57:51.859Z,35.33
2019-01-24T18:59:55.529Z,32.33
2019-01-24T19:02:00.539Z,32.87
2019-01-24T19:04:04.958Z,32.40
2019-01-24T19:06:08.626Z,32.13
2019-01-24T19:08:12.518Z,31.87
2019-01-24T19:10:16.288Z,33.30
2019-01-24T19:12:19.990Z,35.67
2019-01-24T19:14:23.652Z,32.73
2019-01-24T19:16:27.694Z,32.93
2019-01-24T19:18:31.380Z,32.97
2019-01-24T19:20:35.254Z,32.27
2019-01-24T19:22:38.959Z,37.20
2019-01-24T19:24:42.624Z,31.47
2019-01-24T19:26:46.450Z,32.17
2019-01-24T19:28:50.145Z,30.43
2019-01-24T19:30:53.826Z,31.90
2019-01-24T19:32:57.528Z,30.97
2019-01-24T19:35:01.191Z,33.47
2019-01-24T19:37:05.080Z,33.17
2019-01-24T19:39:09.397Z,37.03
2019-01-24T19:41:13.060Z,33.63
2019-01-24T19:43:16.767Z,32.30
2019-01-24T19:45:22.323Z,35.33
2019-01-24T19:47:26.005Z,32.30
2019-01-24T19:49:29.717Z,37.23
2019-01-24T19:51:33.388Z,31.63
2019-01-24T19:53:37.128Z,32.70
2019-01-24T19:55:40.877Z,34.80
2019-01-24T19:57:44.990Z,34.10
2019-01-24T19:59:48.671Z,35.37
2019-01-24T20:01:52.337Z,36.43
2019-01-24T20:03:56.039Z,32.43
2019-01-24T20:05:59.713Z,35.00
2019-01-24T20:08:03.387Z,32.63
2019-01-24T20:10:10.036Z,30.77
2019-01-24T20:12:13.691Z,34.03
2019-01-24T20:14:17.399Z,32.13
2019-01-24T20:16:21.065Z,31.03
2019-01-24T20:18:24.845Z,31.63
2019-01-24T20:20:28.843Z,30.97
2019-01-24T20:22:32.517Z,30.27
2019-01-24T20:24:36.261Z,31.23
2019-01-24T20:26:39.938Z,30.67
2019-01-24T20:28:43.624Z,31.70
2019-01-24T20:30:47.377Z,29.93
2019-01-24T20:32:51.248Z,29.90
2019-01-24T20:34:55.071Z,27.53
2019-01-24T20:36:58.736Z,30.17
2019-01-24T20:39:07.370Z,29.10
2019-01-24T20:41:07.815Z,29.97
2019-01-24T20:43:12.790Z,29.97
2019-01-24T20:45:16.800Z,29.37
2019-01-24T20:47:20.490Z,28.63
2019-01-24T20:49:24.310Z,29.87
2019-01-24T20:51:28.010Z,31.83
2019-01-24T20:53:31.706Z,32.50
2019-01-24T20:55:35.481Z,32.07
2019-01-24T20:57:39.260Z,33.33
2019-01-24T20:59:42.939Z,31.63
2019-01-24T21:01:46.749Z,33.50
2019-01-24T21:03:55.303Z,31.90
2019-01-24T21:05:55.835Z,32.23
2019-01-24T21:07:59.527Z,37.10
2019-01-24T21:10:04.699Z,31.60
2019-01-24T21:12:08.394Z,32.40
2019-01-24T21:14:12.951Z,37.30
2019-01-24T21:16:16.706Z,33.27
2019-01-24T21:18:21.510Z,33.73
2019-01-24T21:20:29.450Z,40.37
2019-01-24T21:22:33.138Z,39.30
2019-01-24T21:24:36.839Z,32.57
2019-01-24T21:26:40.537Z,36.10
2019-01-24T21:28:44.311Z,37.17
2019-01-24T21:30:47.960Z,36.33
2019-01-24T21:32:51.652Z,37.50
2019-01-24T21:34:55.331Z,42.97
2019-01-24T21:36:59.022Z,39.73
2019-01-24T21:39:03.668Z,39.97
2019-01-24T21:41:07.350Z,36.57
2019-01-24T21:43:11.169Z,40.07
2019-01-24T21:45:26.890Z,34.40
2019-01-24T21:47:30.570Z,34.70
2019-01-24T21:49:34.388Z,35.70
2019-01-24T21:51:38.070Z,35.90
2019-01-24T21:53:41.914Z,35.20
2019-01-24T21:55:45.570Z,36.10
2019-01-24T21:57:49.330Z,36.43
2019-01-24T21:59:53.213Z,33.80
2019-01-24T22:01:56.909Z,34.00
2019-01-24T22:04:00.721Z,33.50
2019-01-24T22:06:04.488Z,32.77
2019-01-24T22:08:08.151Z,33.63
2019-01-24T22:10:14.834Z,38.00
2019-01-24T22:12:18.519Z,35.70
2019-01-24T22:14:22.187Z,35.03
2019-01-24T22:16:25.848Z,34.10
2019-01-24T22:18:29.555Z,35.03
2019-01-24T22:20:33.224Z,34.30
2019-01-24T22:22:36.909Z,38.50
2019-01-24T22:24:40.667Z,38.27
2019-01-24T22:26:44.385Z,37.03
2019-01-24T22:28:48.111Z,34.07
2019-01-24T22:30:52.600Z,35.23
2019-01-24T22:32:56.294Z,35.10
2019-01-24T22:34:59.995Z,33.73
2019-01-24T22:37:03.662Z,34.13
2019-01-24T22:39:08.725Z,37.10
2019-01-24T22:41:12.450Z,35.17
2019-01-24T22:43:16.112Z,36.23
2019-01-24T22:45:24.544Z,33.97
2019-01-24T22:47:28.200Z,36.10
2019-01-24T22:49:31.868Z,36.20
2019-01-24T22:51:35.670Z,33.93
2019-01-24T22:53:40.620Z,32.60
2019-01-24T22:55:44.306Z,37.73
2019-01-24T22:57:48.271Z,34.33
2019-01-24T22:59:51.939Z,34.37
2019-01-24T23:01:55.818Z,36.27
2019-01-24T23:03:59.487Z,33.80
2019-01-24T23:06:03.185Z,35.87
2019-01-24T23:08:06.866Z,34.10
2019-01-24T23:10:11.151Z,35.83
2019-01-24T23:12:14.926Z,37.93
2019-01-24T23:14:19.186Z,35.17
2019-01-24T23:16:22.854Z,36.77
2019-01-24T23:18:26.558Z,36.83
2019-01-24T23:20:30.241Z,38.00
2019-01-24T23:22:34.067Z,36.07
2019-01-24T23:24:37.731Z,35.97
2019-01-24T23:26:41.392Z,33.03
2019-01-24T23:28:45.094Z,34.50
2019-01-24T23:30:48.770Z,35.20
2019-01-24T23:32:52.465Z,35.90
2019-01-24T23:34:56.132Z,37.67
2019-01-24T23:36:59.789Z,36.20
2019-01-24T23:39:04.955Z,35.60
2019-01-24T23:41:08.633Z,34.27
2019-01-24T23:43:12.332Z,35.33
2019-01-24T23:45:16.114Z,32.57
2019-01-24T23:47:19.824Z,37.33
2019-01-24T23:49:23.555Z,36.30
2019-01-24T23:51:27.297Z,35.13
2019-01-24T23:53:30.989Z,34.80
2019-01-24T23:55:34.660Z,36.23
2019-01-24T23:57:38.326Z,35.80
2019-01-24T23:59:42.084Z,38.67
